EST,Max TemperatureF,Mean TemperatureF,Min TemperatureF,Max Dew PointF,MeanDew PointF,Min DewpointF,Max Humidity, Mean Humidity, Min Humidity, Max Sea Level PressureIn, Mean Sea Level PressureIn, Min Sea Level PressureIn, Max VisibilityMiles, Mean VisibilityMiles, Min VisibilityMiles, Max Wind SpeedMPH, Mean Wind SpeedMPH, Max Gust SpeedMPH,PrecipitationIn, CloudCover, Events, WindDirDegrees
2013-2-1,10,6,3,1,-1,-2,78,69,62,30.32,30.28,30.21,10,6,2,16,12,16,0.00,7,Snow,242
2013-2-2,24,22,19,19,15,10,86,77,63,30.02,29.98,29.94,10,5,2,12,8,17,0.00,8,Snow,280
2013-2-3,21,16,12,16,11,7,86,76,68,29.99,29.95,29.92,7,3,0,17,9,23,0.00,8,Snow,262
2013-2-4,24,22,19,19,19,18,93,85,80,29.94,29.89,29.84,10,5,0,7,4,,0.00,8,Snow,103
2013-2-5,30,21,12,27,21,9,93,84,64,29.93,29.86,29.80,10,4,0,15,6,23,0.00,7,Snow,232
2013-2-6,32,26,21,21,18,16,93,70,51,30.25,30.21,30.18,10,9,7,8,2,,0.00,3,,162
2013-2-7,39,32,26,30,26,21,87,70,60,30.14,29.97,29.83,7,6,3,14,8,18,0.00,6,Rain,98
2013-2-8,32,31,30,25,22,18,80,71,60,30.32,30.16,30.00,10,10,10,12,10,21,0.00,8,,345
2013-2-9,33,24,15,21,18,12,93,71,56,30.41,30.35,30.25,10,9,7,13,6,17,0.00,0,,147
2013-2-10,42,37,32,36,30,25,87,74,65,30.05,29.88,29.69,10,10,7,14,10,18,0.00,8,,135
2013-2-11,37,34,32,27,22,19,65,63,60,29.92,29.76,29.62,10,10,10,31,23,39,0.00,8,Snow,251
2013-2-12,32,30,28,21,20,19,74,68,60,30.08,30.03,29.97,10,10,10,12,9,,0.00,7,,262
2013-2-13,44,32,21,27,24,18,86,66,46,29.93,29.78,29.72,10,8,4,10,4,,0.00,0,,213
2013-2-14,41,38,35,32,29,25,81,72,61,29.89,29.74,29.70,10,10,7,17,12,29,0.00,7,,227
2013-2-15,28,26,21,21,17,12,80,67,55,30.15,30.12,30.04,11,8,2,12,7,,0.00,7,Snow,326
2013-2-16,19,18,15,14,9,5,80,69,58,30.10,30.08,30.06,10,8,1,14,10,23,0.00,6,Snow,294
2013-2-17,28,20,12,16,11,7,93,68,43,30.20,30.17,30.14,10,10,10,9,3,,0.00,5,,208
2013-2-18,50,39,28,41,30,12,81,60,46,29.92,29.76,29.59,10,10,7,17,12,29,0.00,3,Rain,176
2013-2-19,24,20,15,18,10,9,79,72,63,30.02,29.84,29.67,10,3,1,25,20,32,0.00,8,Snow,258
2013-2-20,21,18,15,16,14,10,80,78,74,30.30,30.23,30.17,10,3,1,15,12,21,0.00,8,Snow,286
2013-2-21,26,22,19,18,16,12,74,70,64,30.36,30.29,30.18,10,10,10,15,7,23,0.00,8,,76
2013-2-22,33,28,24,32,26,19,93,87,80,29.91,29.87,29.84,10,4,1,14,10,22,0.00,8,Rain-Snow,176
2013-2-23,28,27,26,19,17,16,74,63,59,29.94,29.92,29.90,10,10,10,13,12,18,0.00,8,,241
2013-2-24,32,24,23,21,19,18,80,73,64,30.09,30.06,30.02,10,10,10,9,8,,0.00,3,,253
2013-2-25,39,29,19,25,22,16,93,64,52,30.19,30.12,30.02,10,9,5,12,6,,0.00,0,,101
2013-2-26,33,32,32,32,27,21,100,83,60,29.82,29.59,29.48,10,4,0,24,15,30,0.00,7,Rain-Snow,71
2013-2-27,35,34,32,32,32,32,100,96,87,29.59,29.54,29.50,10,3,0,7,5,,0.00,8,Rain-Snow,235
2013-2-28,37,34,32,30,28,27,93,76,70,29.97,29.85,29.72,10,10,10,12,8,,0.00,8,,332